sensor_id;sensor_type;location;lat;lon;timestamp;pressure;altitude;pressure_sealevel;temperature;humidity
59757;BME280;45631;51.962;5.974;2023-02-28T00:01:24;103011.00;;;-0.68;100.00
59757;BME280;45631;51.962;5.974;2023-02-28T00:03:53;103000.69;;;-0.66;100.00
59757;BME280;45631;51.962;5.974;2023-02-28T00:06:21;103005.88;;;-0.64;100.00
59757;BME280;45631;51.962;5.974;2023-02-28T00:08:52;103006.81;;;-0.61;100.00
59757;BME280;45631;51.962;5.974;2023-02-28T00:11:20;102997.34;;;-0.59;100.00
59757;BME280;45631;51.962;5.974;2023-02-28T00:13:48;102996.53;;;-0.56;100.00
59757;BME280;45631;51.962;5.974;2023-02-28T00:16:18;103000.06;;;-0.53;100.00
59757;BME280;45631;51.962;5.974;2023-02-28T00:18:47;102995.81;;;-0.49;100.00
59757;BME280;45631;51.962;5.974;2023-02-28T00:21:18;103004.47;;;-0.45;100.00
59757;BME280;45631;51.962;5.974;2023-02-28T00:23:47;103001.06;;;-0.43;100.00
59757;BME280;45631;51.962;5.974;2023-02-28T00:26:16;102998.56;;;-0.38;100.00
59757;BME280;45631;51.962;5.974;2023-02-28T00:28:47;103006.34;;;-0.35;100.00
59757;BME280;45631;51.962;5.974;2023-02-28T00:31:16;103002.97;;;-0.31;100.00
59757;BME280;45631;51.962;5.974;2023-02-28T00:33:44;103000.41;;;-0.28;100.00
59757;BME280;45631;51.962;5.974;2023-02-28T00:36:12;102997.88;;;-0.25;100.00
59757;BME280;45631;51.962;5.974;2023-02-28T00:38:40;102997.94;;;-0.22;100.00
59757;BME280;45631;51.962;5.974;2023-02-28T00:41:12;103001.44;;;-0.17;100.00
59757;BME280;45631;51.962;5.974;2023-02-28T00:43:41;102992.00;;;-0.13;100.00
59757;BME280;45631;51.962;5.974;2023-02-28T00:46:09;103000.75;;;-0.03;100.00
59757;BME280;45631;51.962;5.974;2023-02-28T00:48:37;102999.06;;;-0.03;100.00
59757;BME280;45631;51.962;5.974;2023-02-28T00:51:06;102997.47;;;0.07;100.00
59757;BME280;45631;51.962;5.974;2023-02-28T00:53:34;102997.50;;;0.10;100.00
59757;BME280;45631;51.962;5.974;2023-02-28T00:56:03;102994.06;;;0.11;100.00
59757;BME280;45631;51.962;5.974;2023-02-28T00:58:31;102994.06;;;0.13;100.00
59757;BME280;45631;51.962;5.974;2023-02-28T01:01:00;102997.53;;;0.15;100.00
59757;BME280;45631;51.962;5.974;2023-02-28T01:03:29;102993.28;;;0.19;100.00
59757;BME280;45631;51.962;5.974;2023-02-28T01:05:57;102982.97;;;0.22;100.00
59757;BME280;45631;51.962;5.974;2023-02-28T01:08:26;103000.22;;;0.23;100.00
59757;BME280;45631;51.962;5.974;2023-02-28T01:10:54;102994.25;;;0.27;100.00
59757;BME280;45631;51.962;5.974;2023-02-28T01:13:25;102995.22;;;0.35;100.00
59757;BME280;45631;51.962;5.974;2023-02-28T01:15:55;102985.75;;;0.36;100.00
59757;BME280;45631;51.962;5.974;2023-02-28T01:18:25;102983.19;;;0.42;100.00
59757;BME280;45631;51.962;5.974;2023-02-28T01:20:53;102989.28;;;0.44;100.00
59757;BME280;45631;51.962;5.974;2023-02-28T01:23:23;102990.97;;;0.43;100.00
59757;BME280;45631;51.962;5.974;2023-02-28T01:25:51;103003.94;;;0.43;100.00
59757;BME280;45631;51.962;5.974;2023-02-28T01:28:20;102999.59;;;0.42;100.00
59757;BME280;45631;51.962;5.974;2023-02-28T01:30:48;102998.75;;;0.43;100.00
59757;BME280;45631;51.962;5.974;2023-02-28T01:33:16;102991.88;;;0.45;100.00
59757;BME280;45631;51.962;5.974;2023-02-28T01:35:46;102998.81;;;0.46;100.00
59757;BME280;45631;51.962;5.974;2023-02-28T01:38:14;103001.44;;;0.49;100.00
59757;BME280;45631;51.962;5.974;2023-02-28T01:40:49;102992.81;;;0.50;100.00
59757;BME280;45631;51.962;5.974;2023-02-28T01:43:21;102994.63;;;0.59;100.00
59757;BME280;45631;51.962;5.974;2023-02-28T01:45:51;102999.00;;;0.65;100.00
59757;BME280;45631;51.962;5.974;2023-02-28T01:48:22;102998.13;;;0.63;100.00
59757;BME280;45631;51.962;5.974;2023-02-28T01:50:58;102986.00;;;0.60;100.00
59757;BME280;45631;51.962;5.974;2023-02-28T01:53:31;102986.03;;;0.62;100.00
59757;BME280;45631;51.962;5.974;2023-02-28T01:56:04;102986.03;;;0.62;100.00
59757;BME280;45631;51.962;5.974;2023-02-28T01:58:34;102988.66;;;0.68;100.00
59757;BME280;45631;51.962;5.974;2023-02-28T02:01:03;102985.19;;;0.66;100.00
59757;BME280;45631;51.962;5.974;2023-02-28T02:03:31;102987.81;;;0.69;100.00
59757;BME280;45631;51.962;5.974;2023-02-28T02:06:02;102993.00;;;0.69;100.00
59757;BME280;45631;51.962;5.974;2023-02-28T02:08:30;102992.19;;;0.73;100.00
59757;BME280;45631;51.962;5.974;2023-02-28T02:10:59;102993.91;;;0.71;100.00
59757;BME280;45631;51.962;5.974;2023-02-28T02:13:42;102989.56;;;0.72;100.00
59757;BME280;45631;51.962;5.974;2023-02-28T02:16:28;102988.75;;;0.74;100.00
59757;BME280;45631;51.962;5.974;2023-02-28T02:19:15;102986.06;;;0.68;100.00
59757;BME280;45631;51.962;5.974;2023-02-28T02:22:20;102992.19;;;0.73;100.00
59757;BME280;45631;51.962;5.974;2023-02-28T02:24:59;102983.47;;;0.68;100.00
59757;BME280;45631;51.962;5.974;2023-02-28T02:27:44;102989.56;;;0.72;100.00
59757;BME280;45631;51.962;5.974;2023-02-28T02:36:11;102986.97;;;0.70;100.00
59757;BME280;45631;51.962;5.974;2023-02-28T02:38:47;102990.41;;;0.67;100.00
59757;BME280;45631;51.962;5.974;2023-02-28T02:41:24;102990.44;;;0.72;100.00
59757;BME280;45631;51.962;5.974;2023-02-28T02:44:02;102986.97;;;0.69;100.00
59757;BME280;45631;51.962;5.974;2023-02-28T02:46:33;102988.72;;;0.71;100.00
59757;BME280;45631;51.962;5.974;2023-02-28T02:49:05;102995.59;;;0.72;100.00
59757;BME280;45631;51.962;5.974;2023-02-28T02:51:36;102993.03;;;0.72;100.00
59757;BME280;45631;51.962;5.974;2023-02-28T02:54:08;102986.06;;;0.66;100.00
59757;BME280;45631;51.962;5.974;2023-02-28T02:56:41;102980.94;;;0.71;100.00
59757;BME280;45631;51.962;5.974;2023-02-28T02:59:13;102990.47;;;0.74;100.00
59757;BME280;45631;51.962;5.974;2023-02-28T03:01:42;103000.78;;;0.69;100.00
59757;BME280;45631;51.962;5.974;2023-02-28T03:04:13;102999.91;;;0.70;100.00
59757;BME280;45631;51.962;5.974;2023-02-28T03:06:46;102994.72;;;0.69;100.00
59757;BME280;45631;51.962;5.974;2023-02-28T03:09:14;102995.59;;;0.72;100.00
59757;BME280;45631;51.962;5.974;2023-02-28T03:11:42;103003.38;;;0.72;100.00
59757;BME280;45631;51.962;5.974;2023-02-28T03:14:23;102997.34;;;0.73;100.00
59757;BME280;45631;51.962;5.974;2023-02-28T03:17:12;103006.06;;;0.81;100.00
59757;BME280;45631;51.962;5.974;2023-02-28T03:19:55;102995.66;;;0.75;100.00
59757;BME280;45631;51.962;5.974;2023-02-28T03:22:56;103000.84;;;0.74;100.00
59757;BME280;45631;51.962;5.974;2023-02-28T03:25:33;102995.59;;;0.72;100.00
59757;BME280;45631;51.962;5.974;2023-02-28T03:28:08;102994.78;;;0.75;100.00
59757;BME280;45631;51.962;5.974;2023-02-28T03:30:47;102992.19;;;0.76;100.00
59757;BME280;45631;51.962;5.974;2023-02-28T03:33:22;102998.31;;;0.84;100.00
59757;BME280;45631;51.962;5.974;2023-02-28T03:35:54;102987.09;;;0.81;100.00
59757;BME280;45631;51.962;5.974;2023-02-28T03:38:29;102994.84;;;0.81;100.00
59757;BME280;45631;51.962;5.974;2023-02-28T03:41:05;102990.50;;;0.78;100.00
59757;BME280;45631;51.962;5.974;2023-02-28T03:43:36;102991.38;;;0.79;100.00
59757;BME280;45631;51.962;5.974;2023-02-28T03:46:09;102987.94;;;0.80;100.00
59757;BME280;45631;51.962;5.974;2023-02-28T03:48:42;102991.38;;;0.79;100.00
59757;BME280;45631;51.962;5.974;2023-02-28T03:51:12;102996.56;;;0.80;100.00
59757;BME280;45631;51.962;5.974;2023-02-28T03:53:47;102993.13;;;0.84;100.00
59757;BME280;45631;51.962;5.974;2023-02-28T03:56:20;102983.66;;;0.82;100.00
59757;BME280;45631;51.962;5.974;2023-02-28T03:58:55;102987.94;;;0.81;100.00
59757;BME280;45631;51.962;5.974;2023-02-28T04:01:30;102981.91;;;0.82;100.00
59757;BME280;45631;51.962;5.974;2023-02-28T04:04:00;102981.06;;;0.85;100.00
59757;BME280;45631;51.962;5.974;2023-02-28T04:06:31;102975.91;;;0.87;100.00
59757;BME280;45631;51.962;5.974;2023-02-28T04:09:02;102978.50;;;0.90;100.00
59757;BME280;45631;51.962;5.974;2023-02-28T04:11:34;102971.63;;;0.90;100.00
59757;BME280;45631;51.962;5.974;2023-02-28T04:14:02;102973.34;;;0.90;100.00
59757;BME280;45631;51.962;5.974;2023-02-28T04:16:32;102969.91;;;0.92;100.00
59757;BME280;45631;51.962;5.974;2023-02-28T04:19:02;102963.84;;;0.90;100.00
59757;BME280;45631;51.962;5.974;2023-02-28T04:21:33;102976.81;;;0.90;100.00
59757;BME280;45631;51.962;5.974;2023-02-28T04:24:05;102976.88;;;0.98;100.00
59757;BME280;45631;51.962;5.974;2023-02-28T04:26:34;102982.03;;;0.95;100.00
59757;BME280;45631;51.962;5.974;2023-02-28T04:29:04;102985.53;;;0.97;100.00
59757;BME280;45631;51.962;5.974;2023-02-28T04:31:34;102977.75;;;1.00;100.00
59757;BME280;45631;51.962;5.974;2023-02-28T04:34:03;102969.09;;;0.96;100.00
59757;BME280;45631;51.962;5.974;2023-02-28T04:36:31;102976.00;;;0.96;100.00
59757;BME280;45631;51.962;5.974;2023-02-28T04:38:59;102971.66;;;0.95;100.00
59757;BME280;45631;51.962;5.974;2023-02-28T04:41:29;102969.91;;;0.92;100.00
59757;BME280;45631;51.962;5.974;2023-02-28T04:43:58;102969.94;;;0.95;100.00
59757;BME280;45631;51.962;5.974;2023-02-28T04:46:26;102980.34;;;1.00;100.00
59757;BME280;45631;51.962;5.974;2023-02-28T04:48:55;102982.94;;;0.98;100.00
59757;BME280;45631;51.962;5.974;2023-02-28T04:51:25;102982.94;;;0.98;100.00
59757;BME280;45631;51.962;5.974;2023-02-28T04:53:54;102967.38;;;0.97;100.00
59757;BME280;45631;51.962;5.974;2023-02-28T04:56:23;102977.78;;;1.05;100.00
59757;BME280;45631;51.962;5.974;2023-02-28T04:58:52;102972.50;;;0.95;100.00
59757;BME280;45631;51.962;5.974;2023-02-28T05:01:23;102981.28;;;1.05;100.00
59757;BME280;45631;51.962;5.974;2023-02-28T05:03:56;102979.47;;;0.98;100.00
59757;BME280;45631;51.962;5.974;2023-02-28T05:06:26;102990.69;;;0.97;100.00
59757;BME280;45631;51.962;5.974;2023-02-28T05:08:55;102982.94;;;0.97;100.00
59757;BME280;45631;51.962;5.974;2023-02-28T05:11:24;102984.59;;;0.93;100.00
59757;BME280;45631;51.962;5.974;2023-02-28T05:13:55;102983.75;;;0.93;100.00
59757;BME280;45631;51.962;5.974;2023-02-28T05:16:26;102980.28;;;0.94;100.00
59757;BME280;45631;51.962;5.974;2023-02-28T05:18:54;102993.31;;;1.00;100.00
59757;BME280;45631;51.962;5.974;2023-02-28T05:21:28;102986.34;;;0.94;100.00
59757;BME280;45631;51.962;5.974;2023-02-28T05:23:59;102984.63;;;0.95;100.00
59757;BME280;45631;51.962;5.974;2023-02-28T05:26:28;102988.94;;;0.96;100.00
59757;BME280;45631;51.962;5.974;2023-02-28T05:28:57;102985.53;;;1.00;100.00
59757;BME280;45631;51.962;5.974;2023-02-28T05:31:26;102987.25;;;0.99;100.00
59757;BME280;45631;51.962;5.974;2023-02-28T05:33:54;102982.03;;;0.96;100.00
59757;BME280;45631;51.962;5.974;2023-02-28T05:36:23;102990.72;;;1.00;100.00
59757;BME280;45631;51.962;5.974;2023-02-28T05:38:51;102991.53;;;0.96;100.00
59757;BME280;45631;51.962;5.974;2023-02-28T05:41:20;102994.97;;;0.93;100.00
59757;BME280;45631;51.962;5.974;2023-02-28T05:43:48;102996.78;;;1.02;100.00
59757;BME280;45631;51.962;5.974;2023-02-28T05:46:18;102994.16;;;0.97;100.00
59757;BME280;45631;51.962;5.974;2023-02-28T05:48:47;102989.78;;;0.93;100.00
59757;BME280;45631;51.962;5.974;2023-02-28T05:51:16;103006.19;;;0.94;100.00
59757;BME280;45631;51.962;5.974;2023-02-28T05:53:45;102995.78;;;0.88;100.00
59757;BME280;45631;51.962;5.974;2023-02-28T05:56:15;102988.88;;;0.88;100.00
59757;BME280;45631;51.962;5.974;2023-02-28T05:58:43;102998.44;;;0.95;100.00
59757;BME280;45631;51.962;5.974;2023-02-28T06:01:24;103002.78;;;0.98;100.00
59757;BME280;45631;51.962;5.974;2023-02-28T06:03:55;102998.44;;;0.95;100.00
59757;BME280;45631;51.962;5.974;2023-02-28T06:06:23;103001.03;;;0.95;100.00
59757;BME280;45631;51.962;5.974;2023-02-28T06:08:51;103003.66;;;0.97;100.00
59757;BME280;45631;51.962;5.974;2023-02-28T06:11:19;102989.81;;;0.96;100.00
59757;BME280;45631;51.962;5.974;2023-02-28T06:13:47;103011.44;;;0.97;100.00
59757;BME280;45631;51.962;5.974;2023-02-28T06:16:15;103024.31;;;0.92;100.00
59757;BME280;45631;51.962;5.974;2023-02-28T06:18:45;103029.53;;;0.94;100.00
59757;BME280;45631;51.962;5.974;2023-02-28T06:21:13;103027.81;;;0.93;100.00
59757;BME280;45631;51.962;5.974;2023-02-28T06:23:41;103024.34;;;0.95;100.00
59757;BME280;45631;51.962;5.974;2023-02-28T06:26:09;103019.16;;;0.94;100.00
59757;BME280;45631;51.962;5.974;2023-02-28T06:28:37;103035.56;;;0.93;100.00
59757;BME280;45631;51.962;5.974;2023-02-28T06:31:07;103032.16;;;0.97;100.00
59757;BME280;45631;51.962;5.974;2023-02-28T06:33:36;103025.16;;;0.90;100.00
59757;BME280;45631;51.962;5.974;2023-02-28T06:36:07;103035.56;;;0.93;100.00
59757;BME280;45631;51.962;5.974;2023-02-28T06:38:36;103039.84;;;0.89;100.00
59757;BME280;45631;51.962;5.974;2023-02-28T06:41:05;103030.34;;;0.90;100.00
59757;BME280;45631;51.962;5.974;2023-02-28T06:43:35;103033.81;;;0.89;100.00
59757;BME280;45631;51.962;5.974;2023-02-28T06:46:05;103028.56;;;0.84;100.00
59757;BME280;45631;51.962;5.974;2023-02-28T06:48:35;103037.25;;;0.88;100.00
59757;BME280;45631;51.962;5.974;2023-02-28T06:51:06;103041.47;;;0.79;100.00
59757;BME280;45631;51.962;5.974;2023-02-28T06:53:34;103046.66;;;0.79;100.00
59757;BME280;45631;51.962;5.974;2023-02-28T06:56:04;103047.41;;;0.69;100.00
59757;BME280;45631;51.962;5.974;2023-02-28T06:58:33;103056.94;;;0.75;100.00
59757;BME280;45631;51.962;5.974;2023-02-28T07:01:02;103050.91;;;0.73;100.00
59757;BME280;45631;51.962;5.974;2023-02-28T07:03:31;103046.56;;;0.72;100.00
59757;BME280;45631;51.962;5.974;2023-02-28T07:06:00;103049.19;;;0.76;100.00
59757;BME280;45631;51.962;5.974;2023-02-28T07:08:31;103056.09;;;0.74;100.00
59757;BME280;45631;51.962;5.974;2023-02-28T07:10:59;103056.94;;;0.73;100.00
59757;BME280;45631;51.962;5.974;2023-02-28T07:13:27;103059.63;;;0.82;100.00
59757;BME280;45631;51.962;5.974;2023-02-28T07:15:57;103060.44;;;0.77;100.00
59757;BME280;45631;51.962;5.974;2023-02-28T07:18:26;103059.63;;;0.81;100.00
59757;BME280;45631;51.962;5.974;2023-02-28T07:20:55;103052.81;;;0.91;100.00
59757;BME280;45631;51.962;5.974;2023-02-28T07:23:23;103064.00;;;0.85;100.00
59757;BME280;45631;51.962;5.974;2023-02-28T07:25:53;103063.06;;;0.80;100.00
59757;BME280;45631;51.962;5.974;2023-02-28T07:28:21;103053.59;;;0.82;100.00
59757;BME280;45631;51.962;5.974;2023-02-28T07:30:49;103066.59;;;0.87;100.00
59757;BME280;45631;51.962;5.974;2023-02-28T07:33:18;103064.91;;;0.89;100.00
59757;BME280;45631;51.962;5.974;2023-02-28T07:35:46;103065.78;;;0.92;100.00
59757;BME280;45631;51.962;5.974;2023-02-28T07:38:14;103073.56;;;0.92;100.00
59757;BME280;45631;51.962;5.974;2023-02-28T07:40:42;103078.75;;;0.94;100.00
59757;BME280;45631;51.962;5.974;2023-02-28T07:43:11;103080.59;;;1.03;100.00
59757;BME280;45631;51.962;5.974;2023-02-28T07:45:39;103072.84;;;1.09;100.00
59757;BME280;45631;51.962;5.974;2023-02-28T07:48:08;103070.56;;;1.41;100.00
59757;BME280;45631;51.962;5.974;2023-02-28T07:50:39;103069.03;;;1.62;100.00
59757;BME280;45631;51.962;5.974;2023-02-28T07:53:07;103068.25;;;1.74;100.00
59757;BME280;45631;51.962;5.974;2023-02-28T07:55:35;103069.44;;;2.24;100.00
59757;BME280;45631;51.962;5.974;2023-02-28T07:58:03;103070.31;;;2.30;99.34
59757;BME280;45631;51.962;5.974;2023-02-28T08:00:33;103070.50;;;2.70;98.28
59757;BME280;45631;51.962;5.974;2023-02-28T08:03:01;103068.78;;;2.80;95.04
59757;BME280;45631;51.962;5.974;2023-02-28T08:05:29;103069.72;;;2.96;91.84
59757;BME280;45631;51.962;5.974;2023-02-28T08:07:57;103064.56;;;3.18;92.63
59757;BME280;45631;51.962;5.974;2023-02-28T08:10:26;103069.75;;;3.16;88.99
59757;BME280;45631;51.962;5.974;2023-02-28T08:12:54;103074.97;;;3.36;87.17
59757;BME280;45631;51.962;5.974;2023-02-28T08:15:22;103075.84;;;3.62;85.78
59757;BME280;45631;51.962;5.974;2023-02-28T08:17:51;103075.78;;;4.02;81.98
59757;BME280;45631;51.962;5.974;2023-02-28T08:20:19;103069.72;;;3.84;78.55
59757;BME280;45631;51.962;5.974;2023-02-28T08:22:47;103080.97;;;4.16;77.87
59757;BME280;45631;51.962;5.974;2023-02-28T08:25:19;103087.81;;;4.49;75.12
59757;BME280;45631;51.962;5.974;2023-02-28T08:27:47;103077.50;;;4.21;70.21
59757;BME280;45631;51.962;5.974;2023-02-28T08:30:18;103068.69;;;4.52;68.25
59757;BME280;45631;51.962;5.974;2023-02-28T08:32:48;103077.38;;;4.51;67.34
59757;BME280;45631;51.962;5.974;2023-02-28T08:35:18;103082.59;;;4.55;68.92
59757;BME280;45631;51.962;5.974;2023-02-28T08:37:47;103079.19;;;4.38;65.95
59757;BME280;45631;51.962;5.974;2023-02-28T08:40:18;103074.91;;;4.12;64.53
59757;BME280;45631;51.962;5.974;2023-02-28T08:42:46;103080.97;;;4.28;67.12
59757;BME280;45631;51.962;5.974;2023-02-28T08:45:15;103081.78;;;4.38;65.85
59757;BME280;45631;51.962;5.974;2023-02-28T08:47:43;103067.94;;;4.19;66.04
59757;BME280;45631;51.962;5.974;2023-02-28T08:50:11;103070.56;;;4.13;63.58
59757;BME280;45631;51.962;5.974;2023-02-28T08:52:43;103076.56;;;4.38;63.23
59757;BME280;45631;51.962;5.974;2023-02-28T08:55:11;103074.88;;;4.25;58.23
59757;BME280;45631;51.962;5.974;2023-02-28T08:57:40;103074.84;;;4.31;56.64
59757;BME280;45631;51.962;5.974;2023-02-28T09:00:09;103074.69;;;4.71;59.73
59757;BME280;45631;51.962;5.974;2023-02-28T09:02:40;103074.66;;;4.79;56.49
59757;BME280;45631;51.962;5.974;2023-02-28T09:05:10;103071.09;;;4.94;55.65
59757;BME280;45631;51.962;5.974;2023-02-28T09:07:38;103064.09;;;4.99;52.46
59757;BME280;45631;51.962;5.974;2023-02-28T09:10:09;103071.88;;;5.06;52.90
59757;BME280;45631;51.962;5.974;2023-02-28T09:12:37;103067.38;;;5.29;52.66
59757;BME280;45631;51.962;5.974;2023-02-28T09:15:07;103076.97;;;5.23;52.64
59757;BME280;45631;51.962;5.974;2023-02-28T09:17:35;103076.28;;;4.98;50.14
59757;BME280;45631;51.962;5.974;2023-02-28T09:20:04;103071.16;;;4.80;51.01
59757;BME280;45631;51.962;5.974;2023-02-28T09:22:33;103076.38;;;4.81;49.78
59757;BME280;45631;51.962;5.974;2023-02-28T09:25:01;103078.88;;;4.98;52.66
59757;BME280;45631;51.962;5.974;2023-02-28T09:27:30;103080.69;;;4.88;51.83
59757;BME280;45631;51.962;5.974;2023-02-28T09:29:58;103078.06;;;4.91;54.02
59757;BME280;45631;51.962;5.974;2023-02-28T09:32:26;103076.31;;;4.94;52.01
59757;BME280;45631;51.962;5.974;2023-02-28T09:34:55;103078.84;;;5.07;50.05
59757;BME280;45631;51.962;5.974;2023-02-28T09:37:23;103062.16;;;5.32;52.21
59757;BME280;45631;51.962;5.974;2023-02-28T09:39:55;103072.53;;;5.38;50.55
59757;BME280;45631;51.962;5.974;2023-02-28T09:42:32;103069.06;;;5.37;51.38
59757;BME280;45631;51.962;5.974;2023-02-28T09:45:05;103066.53;;;5.27;50.55
59757;BME280;45631;51.962;5.974;2023-02-28T09:47:38;103056.13;;;5.20;49.37
59757;BME280;45631;51.962;5.974;2023-02-28T09:50:15;103063.91;;;5.28;47.20
59757;BME280;45631;51.962;5.974;2023-02-28T09:52:48;103061.13;;;5.50;46.64
59757;BME280;45631;51.962;5.974;2023-02-28T09:55:20;103065.28;;;5.71;47.25
59757;BME280;45631;51.962;5.974;2023-02-28T09:57:52;103063.28;;;6.01;47.83
59757;BME280;45631;51.962;5.974;2023-02-28T10:00:23;103061.38;;;6.17;48.11
59757;BME280;45631;51.962;5.974;2023-02-28T10:03:19;103063.94;;;6.20;45.31
59757;BME280;45631;51.962;5.974;2023-02-28T10:05:54;103065.56;;;6.32;43.97
59757;BME280;45631;51.962;5.974;2023-02-28T10:08:30;103056.97;;;6.23;44.02
59757;BME280;45631;51.962;5.974;2023-02-28T10:11:01;103056.75;;;6.40;44.28
59757;BME280;45631;51.962;5.974;2023-02-28T10:13:35;103055.78;;;6.49;44.57
59757;BME280;45631;51.962;5.974;2023-02-28T10:16:07;103063.97;;;6.90;44.91
59757;BME280;45631;51.962;5.974;2023-02-28T10:18:43;103053.44;;;6.93;44.06
59757;BME280;45631;51.962;5.974;2023-02-28T10:21:17;103047.09;;;7.09;43.55
59757;BME280;45631;51.962;5.974;2023-02-28T10:23:48;103048.81;;;7.10;43.84
59757;BME280;45631;51.962;5.974;2023-02-28T10:26:17;103052.63;;;6.88;43.23
59757;BME280;45631;51.962;5.974;2023-02-28T10:28:47;103048.00;;;7.07;42.94
59757;BME280;45631;51.962;5.974;2023-02-28T10:31:18;103048.50;;;7.32;43.21
59757;BME280;45631;51.962;5.974;2023-02-28T10:33:48;103045.00;;;7.32;43.08
59757;BME280;45631;51.962;5.974;2023-02-28T10:36:18;103046.13;;;7.68;43.28
59757;BME280;45631;51.962;5.974;2023-02-28T10:38:48;103039.91;;;7.74;43.16
59757;BME280;45631;51.962;5.974;2023-02-28T10:41:27;103037.94;;;7.85;43.95
59757;BME280;45631;51.962;5.974;2023-02-28T10:44:17;103035.25;;;8.34;42.05
59757;BME280;45631;51.962;5.974;2023-02-28T10:46:49;103036.31;;;8.23;41.01
59757;BME280;45631;51.962;5.974;2023-02-28T10:49:20;103040.56;;;8.31;40.66
59757;BME280;45631;51.962;5.974;2023-02-28T10:51:52;103036.06;;;8.79;41.44
59757;BME280;45631;51.962;5.974;2023-02-28T10:54:28;103024.78;;;9.12;40.63
59757;BME280;45631;51.962;5.974;2023-02-28T10:57:14;103030.75;;;9.19;39.28
59757;BME280;45631;51.962;5.974;2023-02-28T10:59:50;103034.69;;;9.01;37.85
59757;BME280;45631;51.962;5.974;2023-02-28T11:02:30;103027.94;;;8.90;39.30
59757;BME280;45631;51.962;5.974;2023-02-28T11:05:23;103023.31;;;9.71;40.70
59757;BME280;45631;51.962;5.974;2023-02-28T11:07:55;103021.78;;;9.62;39.05
59757;BME280;45631;51.962;5.974;2023-02-28T11:10:27;103015.88;;;9.54;38.38
59757;BME280;45631;51.962;5.974;2023-02-28T11:12:57;103017.63;;;9.86;37.00
59757;BME280;45631;51.962;5.974;2023-02-28T11:15:30;103016.50;;;9.95;36.71
59757;BME280;45631;51.962;5.974;2023-02-28T11:18:01;103010.50;;;9.91;35.90
59757;BME280;45631;51.962;5.974;2023-02-28T11:20:32;103009.88;;;9.81;36.41
59757;BME280;45631;51.962;5.974;2023-02-28T11:23:04;103010.16;;;10.04;36.41
59757;BME280;45631;51.962;5.974;2023-02-28T11:25:38;103001.72;;;10.52;35.70
59757;BME280;45631;51.962;5.974;2023-02-28T11:28:24;103007.69;;;10.87;35.96
59757;BME280;45631;51.962;5.974;2023-02-28T11:31:09;102998.31;;;10.50;34.16
59757;BME280;45631;51.962;5.974;2023-02-28T11:33:43;103000.81;;;11.10;34.49
59757;BME280;45631;51.962;5.974;2023-02-28T11:36:14;103001.91;;;11.03;34.83
59757;BME280;45631;51.962;5.974;2023-02-28T11:38:43;102995.69;;;10.77;33.39
59757;BME280;45631;51.962;5.974;2023-02-28T11:41:25;103000.28;;;10.70;34.80
59757;BME280;45631;51.962;5.974;2023-02-28T11:44:23;103010.81;;;10.70;32.88
59757;BME280;45631;51.962;5.974;2023-02-28T11:46:58;103000.38;;;10.39;33.98
59757;BME280;45631;51.962;5.974;2023-02-28T11:49:33;102990.88;;;10.91;33.80
59757;BME280;45631;51.962;5.974;2023-02-28T11:52:13;102993.50;;;10.91;33.81
59757;BME280;45631;51.962;5.974;2023-02-28T11:54:59;102993.06;;;10.77;33.65
59757;BME280;45631;51.962;5.974;2023-02-28T11:57:37;102993.22;;;10.72;32.09
59757;BME280;45631;51.962;5.974;2023-02-28T12:00:18;102998.44;;;11.27;33.91
59757;BME280;45631;51.962;5.974;2023-02-28T12:02:58;102988.31;;;10.61;32.79
59757;BME280;45631;51.962;5.974;2023-02-28T12:05:36;102984.69;;;10.92;34.01
59757;BME280;45631;51.962;5.974;2023-02-28T12:08:25;102975.16;;;11.15;31.75
59757;BME280;45631;51.962;5.974;2023-02-28T12:11:03;102979.56;;;11.14;33.21
59757;BME280;45631;51.962;5.974;2023-02-28T12:13:41;102983.31;;;11.59;32.20
59757;BME280;45631;51.962;5.974;2023-02-28T12:16:33;102969.50;;;11.01;31.65
59757;BME280;45631;51.962;5.974;2023-02-28T12:19:15;102965.56;;;10.59;32.23
59757;BME280;45631;51.962;5.974;2023-02-28T12:25:18;102959.69;;;11.06;32.40
59757;BME280;45631;51.962;5.974;2023-02-28T12:27:49;102960.84;;;10.97;32.19
59757;BME280;45631;51.962;5.974;2023-02-28T12:30:23;102964.91;;;11.32;32.72
59757;BME280;45631;51.962;5.974;2023-02-28T12:32:55;102960.25;;;11.15;33.09
59757;BME280;45631;51.962;5.974;2023-02-28T12:35:31;102950.13;;;11.28;31.62
59757;BME280;45631;51.962;5.974;2023-02-28T12:38:04;102955.88;;;11.89;32.70
59757;BME280;45631;51.962;5.974;2023-02-28T12:40:44;102953.28;;;11.38;31.39
59757;BME280;45631;51.962;5.974;2023-02-28T12:43:15;102943.09;;;11.78;31.60
59757;BME280;45631;51.962;5.974;2023-02-28T12:45:47;102940.19;;;11.62;31.46
59757;BME280;45631;51.962;5.974;2023-02-28T12:48:20;102943.09;;;11.78;31.69
59757;BME280;45631;51.962;5.974;2023-02-28T12:50:51;102935.41;;;11.48;31.19
59757;BME280;45631;51.962;5.974;2023-02-28T12:53:25;102931.31;;;11.14;31.20
59757;BME280;45631;51.962;5.974;2023-02-28T12:56:07;102926.69;;;11.71;31.70
59757;BME280;45631;51.962;5.974;2023-02-28T12:58:39;102927.00;;;11.86;30.83
59757;BME280;45631;51.962;5.974;2023-02-28T13:01:32;102929.72;;;12.08;31.68
59757;BME280;45631;51.962;5.974;2023-02-28T13:04:27;102919.63;;;12.19;30.39
59757;BME280;45631;51.962;5.974;2023-02-28T13:07:13;102909.94;;;12.64;30.28
59757;BME280;45631;51.962;5.974;2023-02-28T13:09:52;102919.06;;;12.11;30.68
59757;BME280;45631;51.962;5.974;2023-02-28T13:12:21;102917.59;;;12.26;30.54
59757;BME280;45631;51.962;5.974;2023-02-28T13:14:50;102906.97;;;12.49;30.69
59757;BME280;45631;51.962;5.974;2023-02-28T13:17:28;102912.16;;;12.73;30.19
59757;BME280;45631;51.962;5.974;2023-02-28T13:19:58;102919.16;;;12.08;29.48
59757;BME280;45631;51.962;5.974;2023-02-28T13:22:46;102917.91;;;12.18;30.28
59757;BME280;45631;51.962;5.974;2023-02-28T13:34:40;102905.59;;;10.95;31.67
59757;BME280;45631;51.962;5.974;2023-02-28T13:37:34;102897.53;;;11.00;31.76